sensor_id;sensor_type;location;lat;lon;timestamp;pressure;altitude;pressure_sealevel;temperature;humidity
13080;BME280;6606;49.154;9.280;2023-04-29T00:02:29;99270.47;;;12.68;100.00
13080;BME280;6606;49.154;9.280;2023-04-29T00:05:11;99266.56;;;12.59;100.00
13080;BME280;6606;49.154;9.280;2023-04-29T00:07:53;99263.19;;;12.57;100.00
13080;BME280;6606;49.154;9.280;2023-04-29T00:10:35;99264.13;;;12.56;100.00
13080;BME280;6606;49.154;9.280;2023-04-29T00:13:18;99266.91;;;12.54;100.00
13080;BME280;6606;49.154;9.280;2023-04-29T00:16:00;99266.84;;;12.42;100.00
13080;BME280;6606;49.154;9.280;2023-04-29T00:18:42;99268.53;;;12.43;100.00
13080;BME280;6606;49.154;9.280;2023-04-29T00:21:24;99266.72;;;12.43;100.00
13080;BME280;6606;49.154;9.280;2023-04-29T00:24:07;99261.72;;;12.39;100.00
13080;BME280;6606;49.154;9.280;2023-04-29T00:26:48;99261.03;;;12.35;100.00
13080;BME280;6606;49.154;9.280;2023-04-29T00:29:31;99256.78;;;12.32;100.00
13080;BME280;6606;49.154;9.280;2023-04-29T00:32:13;99257.81;;;12.30;100.00
13080;BME280;6606;49.154;9.280;2023-04-29T00:34:55;99260.75;;;12.40;100.00
13080;BME280;6606;49.154;9.280;2023-04-29T00:37:37;99256.91;;;12.58;100.00
13080;BME280;6606;49.154;9.280;2023-04-29T00:40:19;99265.03;;;12.69;100.00
13080;BME280;6606;49.154;9.280;2023-04-29T00:43:01;99266.88;;;12.82;100.00
13080;BME280;6606;49.154;9.280;2023-04-29T00:45:44;99268.75;;;12.94;100.00
13080;BME280;6606;49.154;9.280;2023-04-29T00:48:26;99264.06;;;12.97;100.00
13080;BME280;6606;49.154;9.280;2023-04-29T00:51:08;99259.38;;;13.01;100.00
13080;BME280;6606;49.154;9.280;2023-04-29T00:53:50;99276.56;;;13.10;100.00
13080;BME280;6606;49.154;9.280;2023-04-29T00:56:34;99271.53;;;13.05;100.00
13080;BME280;6606;49.154;9.280;2023-04-29T00:59:16;99273.44;;;13.03;100.00
13080;BME280;6606;49.154;9.280;2023-04-29T01:02:00;99278.63;;;12.92;100.00
13080;BME280;6606;49.154;9.280;2023-04-29T01:04:43;99287.53;;;12.78;100.00
13080;BME280;6606;49.154;9.280;2023-04-29T01:07:30;99278.44;;;12.68;100.00
13080;BME280;6606;49.154;9.280;2023-04-29T01:10:20;99286.91;;;12.60;100.00
13080;BME280;6606;49.154;9.280;2023-04-29T01:13:06;99291.66;;;12.55;100.00
13080;BME280;6606;49.154;9.280;2023-04-29T01:16:00;99287.91;;;12.45;100.00
13080;BME280;6606;49.154;9.280;2023-04-29T01:18:49;99298.25;;;12.35;100.00
13080;BME280;6606;49.154;9.280;2023-04-29T01:21:44;99297.13;;;12.25;100.00
13080;BME280;6606;49.154;9.280;2023-04-29T01:24:29;99299.22;;;12.20;100.00
13080;BME280;6606;49.154;9.280;2023-04-29T01:27:23;99302.53;;;12.09;100.00
13080;BME280;6606;49.154;9.280;2023-04-29T01:30:21;99296.78;;;12.02;100.00
13080;BME280;6606;49.154;9.280;2023-04-29T01:33:14;99292.59;;;11.98;100.00
13080;BME280;6606;49.154;9.280;2023-04-29T01:36:07;99291.19;;;11.93;100.00
13080;BME280;6606;49.154;9.280;2023-04-29T01:38:59;99293.41;;;11.84;100.00
13080;BME280;6606;49.154;9.280;2023-04-29T01:41:50;99300.28;;;11.88;100.00
13080;BME280;6606;49.154;9.280;2023-04-29T01:44:40;99297.13;;;11.82;100.00
13080;BME280;6606;49.154;9.280;2023-04-29T01:47:24;99294.66;;;11.79;100.00
13080;BME280;6606;49.154;9.280;2023-04-29T01:50:09;99299.31;;;11.75;100.00
13080;BME280;6606;49.154;9.280;2023-04-29T01:52:51;99298.16;;;11.79;100.00
13080;BME280;6606;49.154;9.280;2023-04-29T01:55:33;99295.16;;;11.85;100.00
13080;BME280;6606;49.154;9.280;2023-04-29T01:58:35;99290.59;;;11.87;100.00
13080;BME280;6606;49.154;9.280;2023-04-29T02:01:47;99293.41;;;11.84;100.00
13080;BME280;6606;49.154;9.280;2023-04-29T02:04:29;99298.56;;;11.87;100.00
13080;BME280;6606;49.154;9.280;2023-04-29T02:07:13;99292.41;;;11.87;100.00
13080;BME280;6606;49.154;9.280;2023-04-29T02:09:55;99296.41;;;11.94;100.00
13080;BME280;6606;49.154;9.280;2023-04-29T02:12:37;99298.28;;;12.06;100.00
13080;BME280;6606;49.154;9.280;2023-04-29T02:15:20;99297.22;;;12.09;100.00
13080;BME280;6606;49.154;9.280;2023-04-29T02:18:02;99293.38;;;12.15;100.00
13080;BME280;6606;49.154;9.280;2023-04-29T02:20:44;99292.84;;;12.22;100.00
13080;BME280;6606;49.154;9.280;2023-04-29T02:23:26;99301.09;;;12.32;100.00
13080;BME280;6606;49.154;9.280;2023-04-29T02:26:09;99302.44;;;12.39;100.00
13080;BME280;6606;49.154;9.280;2023-04-29T02:28:51;99308.97;;;12.48;100.00
13080;BME280;6606;49.154;9.280;2023-04-29T02:31:36;99306.94;;;12.51;100.00
13080;BME280;6606;49.154;9.280;2023-04-29T02:34:18;99303.75;;;12.46;100.00
13080;BME280;6606;49.154;9.280;2023-04-29T02:36:59;99298.81;;;12.54;100.00
13080;BME280;6606;49.154;9.280;2023-04-29T02:39:42;99304.41;;;12.50;100.00
13080;BME280;6606;49.154;9.280;2023-04-29T02:42:25;99297.34;;;12.63;100.00
13080;BME280;6606;49.154;9.280;2023-04-29T02:45:07;99300.16;;;12.74;100.00
13080;BME280;6606;49.154;9.280;2023-04-29T02:47:51;99301.25;;;12.85;100.00
13080;BME280;6606;49.154;9.280;2023-04-29T02:50:33;99308.03;;;13.03;100.00
13080;BME280;6606;49.154;9.280;2023-04-29T02:53:15;99302.50;;;13.06;100.00
13080;BME280;6606;49.154;9.280;2023-04-29T02:55:57;99297.97;;;13.21;100.00
13080;BME280;6606;49.154;9.280;2023-04-29T02:58:39;99301.41;;;13.36;100.00
13080;BME280;6606;49.154;9.280;2023-04-29T03:01:21;99306.69;;;13.50;100.00
13080;BME280;6606;49.154;9.280;2023-04-29T03:04:05;99303.72;;;13.55;100.00
13080;BME280;6606;49.154;9.280;2023-04-29T03:06:47;99307.75;;;13.60;100.00
13080;BME280;6606;49.154;9.280;2023-04-29T03:09:29;99310.19;;;13.63;100.00
13080;BME280;6606;49.154;9.280;2023-04-29T03:12:11;99314.66;;;13.76;100.00
13080;BME280;6606;49.154;9.280;2023-04-29T03:14:53;99305.50;;;13.80;100.00
13080;BME280;6606;49.154;9.280;2023-04-29T03:17:36;99309.69;;;13.84;100.00
13080;BME280;6606;49.154;9.280;2023-04-29T03:20:20;99312.13;;;13.74;100.00
13080;BME280;6606;49.154;9.280;2023-04-29T03:23:01;99304.13;;;13.74;100.00
13080;BME280;6606;49.154;9.280;2023-04-29T03:25:43;99301.78;;;13.70;100.00
13080;BME280;6606;49.154;9.280;2023-04-29T03:28:26;99303.16;;;13.62;100.00
13080;BME280;6606;49.154;9.280;2023-04-29T03:31:07;99305.19;;;13.72;100.00
13080;BME280;6606;49.154;9.280;2023-04-29T03:33:51;99302.31;;;13.75;100.00
13080;BME280;6606;49.154;9.280;2023-04-29T03:36:36;99304.00;;;13.76;100.00
13080;BME280;6606;49.154;9.280;2023-04-29T03:39:20;99307.84;;;13.72;100.00
13080;BME280;6606;49.154;9.280;2023-04-29T03:42:02;99304.00;;;13.76;100.00
13080;BME280;6606;49.154;9.280;2023-04-29T03:44:44;99304.44;;;13.70;100.00
13080;BME280;6606;49.154;9.280;2023-04-29T03:47:26;99305.06;;;13.73;100.00
13080;BME280;6606;49.154;9.280;2023-04-29T03:50:08;99306.78;;;13.74;100.00
13080;BME280;6606;49.154;9.280;2023-04-29T03:52:52;99312.56;;;13.68;100.00
13080;BME280;6606;49.154;9.280;2023-04-29T03:55:34;99313.41;;;13.69;100.00
13080;BME280;6606;49.154;9.280;2023-04-29T03:58:16;99312.22;;;13.73;100.00
13080;BME280;6606;49.154;9.280;2023-04-29T04:00:58;99320.00;;;13.63;100.00
13080;BME280;6606;49.154;9.280;2023-04-29T04:03:47;99317.22;;;13.64;100.00
13080;BME280;6606;49.154;9.280;2023-04-29T04:06:29;99321.47;;;13.67;100.00
13080;BME280;6606;49.154;9.280;2023-04-29T04:09:22;99329.06;;;13.60;100.00
13080;BME280;6606;49.154;9.280;2023-04-29T04:12:05;99328.53;;;13.68;100.00
13080;BME280;6606;49.154;9.280;2023-04-29T04:14:48;99334.28;;;13.75;100.00
13080;BME280;6606;49.154;9.280;2023-04-29T04:17:30;99341.19;;;13.64;100.00
13080;BME280;6606;49.154;9.280;2023-04-29T04:20:12;99335.13;;;13.75;100.00
13080;BME280;6606;49.154;9.280;2023-04-29T04:22:53;99333.53;;;13.73;100.00
13080;BME280;6606;49.154;9.280;2023-04-29T04:25:46;99345.91;;;13.74;100.00
13080;BME280;6606;49.154;9.280;2023-04-29T04:28:51;99349.84;;;13.68;100.00
13080;BME280;6606;49.154;9.280;2023-04-29T04:31:41;99345.69;;;13.77;100.00
13080;BME280;6606;49.154;9.280;2023-04-29T04:34:23;99353.03;;;13.86;100.00
13080;BME280;6606;49.154;9.280;2023-04-29T04:37:08;99353.03;;;13.86;100.00
13080;BME280;6606;49.154;9.280;2023-04-29T04:39:51;99348.56;;;13.74;100.00
13080;BME280;6606;49.154;9.280;2023-04-29T04:42:34;99354.50;;;13.64;100.00
13080;BME280;6606;49.154;9.280;2023-04-29T04:45:16;99362.72;;;13.61;100.00
13080;BME280;6606;49.154;9.280;2023-04-29T04:48:03;99381.97;;;13.52;100.00
13080;BME280;6606;49.154;9.280;2023-04-29T04:50:47;99374.38;;;13.46;100.00
13080;BME280;6606;49.154;9.280;2023-04-29T04:58:12;99379.88;;;13.83;100.00
13080;BME280;6606;49.154;9.280;2023-04-29T05:00:54;99379.38;;;14.03;100.00
13080;BME280;6606;49.154;9.280;2023-04-29T05:03:35;99385.25;;;14.08;100.00
13080;BME280;6606;49.154;9.280;2023-04-29T05:06:17;99383.94;;;13.89;100.00
13080;BME280;6606;49.154;9.280;2023-04-29T05:09:01;99382.56;;;13.83;100.00
13080;BME280;6606;49.154;9.280;2023-04-29T05:11:43;99385.84;;;13.74;100.00
13080;BME280;6606;49.154;9.280;2023-04-29T05:14:30;99392.63;;;13.65;100.00
13080;BME280;6606;49.154;9.280;2023-04-29T05:17:12;99401.28;;;13.69;100.00
13080;BME280;6606;49.154;9.280;2023-04-29T05:19:53;99404.34;;;13.62;100.00
13080;BME280;6606;49.154;9.280;2023-04-29T05:22:37;99411.28;;;13.65;100.00
13080;BME280;6606;49.154;9.280;2023-04-29T05:25:19;99403.97;;;13.69;100.00
13080;BME280;6606;49.154;9.280;2023-04-29T05:28:01;99409.81;;;13.74;100.00
13080;BME280;6606;49.154;9.280;2023-04-29T05:30:49;99420.81;;;13.82;100.00
13080;BME280;6606;49.154;9.280;2023-04-29T05:33:31;99419.03;;;13.95;100.00
13080;BME280;6606;49.154;9.280;2023-04-29T05:36:13;99427.22;;;14.18;100.00
13080;BME280;6606;49.154;9.280;2023-04-29T05:38:55;99430.88;;;14.42;100.00
13080;BME280;6606;49.154;9.280;2023-04-29T05:41:37;99439.19;;;14.50;100.00
13080;BME280;6606;49.154;9.280;2023-04-29T05:44:41;99441.28;;;14.97;100.00
13080;BME280;6606;49.154;9.280;2023-04-29T05:47:24;99442.50;;;14.80;100.00
13080;BME280;6606;49.154;9.280;2023-04-29T05:50:07;99444.13;;;14.57;100.00
13080;BME280;6606;49.154;9.280;2023-04-29T05:52:48;99451.13;;;14.58;100.00
13080;BME280;6606;49.154;9.280;2023-04-29T05:55:32;99447.94;;;14.52;100.00
13080;BME280;6606;49.154;9.280;2023-04-29T05:58:17;99445.69;;;14.72;100.00
13080;BME280;6606;49.154;9.280;2023-04-29T06:00:59;99462.47;;;14.74;100.00
13080;BME280;6606;49.154;9.280;2023-04-29T06:03:44;99462.53;;;14.47;100.00
13080;BME280;6606;49.154;9.280;2023-04-29T06:06:48;99463.63;;;14.57;100.00
13080;BME280;6606;49.154;9.280;2023-04-29T06:09:33;99466.53;;;14.67;100.00
13080;BME280;6606;49.154;9.280;2023-04-29T06:12:16;99468.00;;;14.71;100.00
13080;BME280;6606;49.154;9.280;2023-04-29T06:14:59;99461.81;;;14.32;100.00
13080;BME280;6606;49.154;9.280;2023-04-29T06:17:41;99468.97;;;14.70;100.00
13080;BME280;6606;49.154;9.280;2023-04-29T06:20:27;99478.34;;;15.25;100.00
13080;BME280;6606;49.154;9.280;2023-04-29T06:23:09;99476.78;;;15.47;100.00
13080;BME280;6606;49.154;9.280;2023-04-29T06:25:52;99482.69;;;15.39;100.00
13080;BME280;6606;49.154;9.280;2023-04-29T06:28:35;99490.34;;;15.20;100.00
13080;BME280;6606;49.154;9.280;2023-04-29T06:31:17;99491.22;;;14.94;100.00
13080;BME280;6606;49.154;9.280;2023-04-29T06:33:59;99504.03;;;14.89;100.00
13080;BME280;6606;49.154;9.280;2023-04-29T06:36:43;99505.00;;;14.88;100.00
13080;BME280;6606;49.154;9.280;2023-04-29T06:39:39;99509.78;;;15.09;100.00
13080;BME280;6606;49.154;9.280;2023-04-29T06:42:38;99515.28;;;15.31;100.00
13080;BME280;6606;49.154;9.280;2023-04-29T06:45:56;99519.50;;;15.47;100.00
13080;BME280;6606;49.154;9.280;2023-04-29T06:49:00;99518.47;;;15.97;100.00
13080;BME280;6606;49.154;9.280;2023-04-29T06:51:43;99516.13;;;15.93;100.00
13080;BME280;6606;49.154;9.280;2023-04-29T06:54:25;99515.59;;;15.64;100.00
13080;BME280;6606;49.154;9.280;2023-04-29T06:57:07;99520.31;;;15.60;100.00
13080;BME280;6606;49.154;9.280;2023-04-29T06:59:49;99517.72;;;15.34;100.00
13080;BME280;6606;49.154;9.280;2023-04-29T07:02:32;99520.84;;;15.28;100.00
13080;BME280;6606;49.154;9.280;2023-04-29T07:05:14;99524.66;;;15.37;100.00
13080;BME280;6606;49.154;9.280;2023-04-29T07:07:58;99529.72;;;15.16;100.00
13080;BME280;6606;49.154;9.280;2023-04-29T07:10:40;99535.34;;;15.37;100.00
13080;BME280;6606;49.154;9.280;2023-04-29T07:13:22;99536.88;;;15.28;100.00
13080;BME280;6606;49.154;9.280;2023-04-29T07:16:05;99535.88;;;14.92;100.00
13080;BME280;6606;49.154;9.280;2023-04-29T07:18:54;99544.81;;;14.91;100.00
13080;BME280;6606;49.154;9.280;2023-04-29T07:21:36;99551.03;;;14.66;100.00
13080;BME280;6606;49.154;9.280;2023-04-29T07:24:19;99555.28;;;14.82;100.00
13080;BME280;6606;49.154;9.280;2023-04-29T07:27:03;99553.56;;;14.68;100.00
13080;BME280;6606;49.154;9.280;2023-04-29T07:29:44;99551.22;;;14.76;100.00
13080;BME280;6606;49.154;9.280;2023-04-29T07:32:26;99567.66;;;14.70;100.00
13080;BME280;6606;49.154;9.280;2023-04-29T07:35:08;99563.28;;;14.82;100.00
13080;BME280;6606;49.154;9.280;2023-04-29T07:37:50;99562.00;;;15.13;100.00
13080;BME280;6606;49.154;9.280;2023-04-29T07:40:33;99577.91;;;15.14;100.00
13080;BME280;6606;49.154;9.280;2023-04-29T07:43:17;99577.47;;;15.08;100.00
13080;BME280;6606;49.154;9.280;2023-04-29T07:45:58;99574.25;;;15.28;100.00
13080;BME280;6606;49.154;9.280;2023-04-29T07:48:40;99578.13;;;15.61;100.00
13080;BME280;6606;49.154;9.280;2023-04-29T07:51:22;99575.72;;;16.06;100.00
13080;BME280;6606;49.154;9.280;2023-04-29T07:54:04;99577.97;;;16.94;100.00
13080;BME280;6606;49.154;9.280;2023-04-29T07:57:18;99583.66;;;16.43;100.00
13080;BME280;6606;49.154;9.280;2023-04-29T08:00:00;99590.53;;;16.23;100.00
13080;BME280;6606;49.154;9.280;2023-04-29T08:02:42;99587.44;;;16.16;100.00
13080;BME280;6606;49.154;9.280;2023-04-29T08:05:26;99587.06;;;16.45;100.00
13080;BME280;6606;49.154;9.280;2023-04-29T08:08:10;99587.59;;;16.61;100.00
13080;BME280;6606;49.154;9.280;2023-04-29T08:10:51;99596.97;;;17.25;100.00
13080;BME280;6606;49.154;9.280;2023-04-29T08:13:41;99599.31;;;17.52;100.00
13080;BME280;6606;49.154;9.280;2023-04-29T08:16:26;99599.19;;;17.42;100.00
13080;BME280;6606;49.154;9.280;2023-04-29T08:19:08;99602.59;;;17.22;100.00
13080;BME280;6606;49.154;9.280;2023-04-29T08:21:49;99611.69;;;16.97;100.00
13080;BME280;6606;49.154;9.280;2023-04-29T08:24:32;99614.78;;;16.33;100.00
13080;BME280;6606;49.154;9.280;2023-04-29T08:27:14;99617.78;;;16.04;100.00
13080;BME280;6606;49.154;9.280;2023-04-29T08:29:58;99616.06;;;16.27;100.00
13080;BME280;6606;49.154;9.280;2023-04-29T08:32:39;99610.09;;;16.23;100.00
13080;BME280;6606;49.154;9.280;2023-04-29T08:35:21;99612.31;;;16.30;100.00
13080;BME280;6606;49.154;9.280;2023-04-29T08:38:03;99612.69;;;16.71;100.00
13080;BME280;6606;49.154;9.280;2023-04-29T08:40:49;99613.78;;;17.16;100.00
13080;BME280;6606;49.154;9.280;2023-04-29T08:43:33;99615.00;;;17.68;100.00
13080;BME280;6606;49.154;9.280;2023-04-29T08:46:17;99610.38;;;17.58;100.00
13080;BME280;6606;49.154;9.280;2023-04-29T08:49:01;99614.72;;;17.93;100.00
13080;BME280;6606;49.154;9.280;2023-04-29T08:51:47;99605.94;;;18.02;100.00
13080;BME280;6606;49.154;9.280;2023-04-29T08:54:30;99618.63;;;17.67;100.00
13080;BME280;6606;49.154;9.280;2023-04-29T08:57:12;99620.84;;;17.50;100.00
13080;BME280;6606;49.154;9.280;2023-04-29T08:59:53;99619.28;;;17.48;100.00
13080;BME280;6606;49.154;9.280;2023-04-29T09:02:42;99620.59;;;17.65;100.00
13080;BME280;6606;49.154;9.280;2023-04-29T09:05:25;99624.03;;;17.44;100.00
13080;BME280;6606;49.154;9.280;2023-04-29T09:08:08;99622.41;;;17.08;100.00
13080;BME280;6606;49.154;9.280;2023-04-29T09:10:51;99627.19;;;17.49;100.00
13080;BME280;6606;49.154;9.280;2023-04-29T09:13:33;99627.63;;;16.98;100.00
13080;BME280;6606;49.154;9.280;2023-04-29T09:16:15;99622.56;;;17.18;100.00
13080;BME280;6606;49.154;9.280;2023-04-29T09:18:58;99628.13;;;17.59;100.00
13080;BME280;6606;49.154;9.280;2023-04-29T09:21:40;99623.78;;;17.47;100.00
13080;BME280;6606;49.154;9.280;2023-04-29T09:24:24;99618.16;;;17.17;100.00
13080;BME280;6606;49.154;9.280;2023-04-29T09:27:06;99623.50;;;17.17;100.00
13080;BME280;6606;49.154;9.280;2023-04-29T09:29:59;99623.78;;;17.47;100.00
13080;BME280;6606;49.154;9.280;2023-04-29T09:32:41;99622.06;;;17.35;100.00
13080;BME280;6606;49.154;9.280;2023-04-29T09:35:26;99640.34;;;17.64;100.00
13080;BME280;6606;49.154;9.280;2023-04-29T09:38:10;99633.78;;;18.34;100.00
13080;BME280;6606;49.154;9.280;2023-04-29T10:02:47;99643.59;;;18.98;100.00
13080;BME280;6606;49.154;9.280;2023-04-29T10:05:30;99656.88;;;18.14;100.00
13080;BME280;6606;49.154;9.280;2023-04-29T10:08:12;99659.47;;;17.48;100.00
13080;BME280;6606;49.154;9.280;2023-04-29T10:10:55;99658.34;;;17.62;100.00
13080;BME280;6606;49.154;9.280;2023-04-29T10:13:41;99656.91;;;18.02;100.00
13080;BME280;6606;49.154;9.280;2023-04-29T10:16:28;99664.53;;;18.18;100.00
13080;BME280;6606;49.154;9.280;2023-04-29T10:19:14;99666.28;;;17.86;100.00
13080;BME280;6606;49.154;9.280;2023-04-29T10:22:04;99668.09;;;17.96;100.00
13080;BME280;6606;49.154;9.280;2023-04-29T10:24:48;99661.56;;;17.89;100.00
13080;BME280;6606;49.154;9.280;2023-04-29T10:27:32;99658.13;;;17.76;100.00
13080;BME280;6606;49.154;9.280;2023-04-29T10:30:15;99656.91;;;18.02;100.00
13080;BME280;6606;49.154;9.280;2023-04-29T10:33:00;99657.59;;;18.16;100.00
13080;BME280;6606;49.154;9.280;2023-04-29T10:35:46;99659.22;;;17.62;100.00
13080;BME280;6606;49.154;9.280;2023-04-29T10:38:33;99659.56;;;18.14;100.00
13080;BME280;6606;49.154;9.280;2023-04-29T10:41:20;99657.31;;;18.30;100.00
13080;BME280;6606;49.154;9.280;2023-04-29T10:44:04;99656.38;;;18.09;100.00
13080;BME280;6606;49.154;9.280;2023-04-29T10:46:45;99656.09;;;18.34;100.00
13080;BME280;6606;49.154;9.280;2023-04-29T10:49:32;99657.94;;;18.55;100.00
13080;BME280;6606;49.154;9.280;2023-04-29T10:52:16;99664.84;;;18.68;100.00
13080;BME280;6606;49.154;9.280;2023-04-29T10:55:01;99665.81;;;18.79;100.00
13080;BME280;6606;49.154;9.280;2023-04-29T10:57:44;99661.13;;;18.49;100.00
13080;BME280;6606;49.154;9.280;2023-04-29T11:00:26;99651.91;;;18.74;100.00
13080;BME280;6606;49.154;9.280;2023-04-29T11:06:37;99646.41;;;19.17;100.00
13080;BME280;6606;49.154;9.280;2023-04-29T11:09:24;99661.09;;;18.60;100.00
13080;BME280;6606;49.154;9.280;2023-04-29T11:12:07;99649.25;;;18.30;100.00
13080;BME280;6606;49.154;9.280;2023-04-29T11:14:50;99654.81;;;18.06;100.00
13080;BME280;6606;49.154;9.280;2023-04-29T11:17:36;99644.88;;;18.29;100.00
13080;BME280;6606;49.154;9.280;2023-04-29T11:20:18;99651.06;;;18.62;100.00
13080;BME280;6606;49.154;9.280;2023-04-29T11:23:01;99650.13;;;18.63;100.00
13080;BME280;6606;49.154;9.280;2023-04-29T11:25:45;99644.88;;;18.61;100.00
13080;BME280;6606;49.154;9.280;2023-04-29T11:28:26;99645.22;;;19.10;100.00
13080;BME280;6606;49.154;9.280;2023-04-29T11:31:08;99643.09;;;19.65;100.00
13080;BME280;6606;49.154;9.280;2023-04-29T11:33:50;99646.50;;;19.06;100.00
13080;BME280;6606;49.154;9.280;2023-04-29T11:36:33;99636.38;;;19.19;100.00
13080;BME280;6606;49.154;9.280;2023-04-29T11:39:15;99642.91;;;19.26;100.00
13080;BME280;6606;49.154;9.280;2023-04-29T11:42:03;99643.06;;;19.04;100.00
13080;BME280;6606;49.154;9.280;2023-04-29T11:44:45;99644.13;;;18.59;100.00
13080;BME280;6606;49.154;9.280;2023-04-29T11:47:28;99647.88;;;18.68;100.00
13080;BME280;6606;49.154;9.280;2023-04-29T11:50:11;99649.69;;;18.79;100.00
13080;BME280;6606;49.154;9.280;2023-04-29T11:52:53;99651.53;;;18.99;100.00
13080;BME280;6606;49.154;9.280;2023-04-29T11:55:35;99652.38;;;19.00;100.00
13080;BME280;6606;49.154;9.280;2023-04-29T11:58:19;99645.81;;;19.35;100.00
13080;BME280;6606;49.154;9.280;2023-04-29T12:01:01;99643.81;;;19.37;100.00
13080;BME280;6606;49.154;9.280;2023-04-29T12:03:43;99652.53;;;19.29;100.00
13080;BME280;6606;49.154;9.280;2023-04-29T12:06:27;99650.00;;;19.27;100.00
13080;BME280;6606;49.154;9.280;2023-04-29T12:09:09;99652.78;;;19.77;100.00
13080;BME280;6606;49.154;9.280;2023-04-29T12:11:51;99654.75;;;19.75;100.00
13080;BME280;6606;49.154;9.280;2023-04-29T12:14:35;99649.38;;;19.14;100.00
13080;BME280;6606;49.154;9.280;2023-04-29T12:17:17;99653.88;;;19.35;100.00
13080;BME280;6606;49.154;9.280;2023-04-29T12:19:59;99657.03;;;19.19;100.00
13080;BME280;6606;49.154;9.280;2023-04-29T12:22:41;99650.38;;;18.92;100.00
13080;BME280;6606;49.154;9.280;2023-04-29T12:25:25;99653.00;;;19.13;100.00
13080;BME280;6606;49.154;9.280;2023-04-29T12:28:11;99658.63;;;19.00;100.00
13080;BME280;6606;49.154;9.280;2023-04-29T12:30:54;99660.25;;;18.59;100.00
13080;BME280;6606;49.154;9.280;2023-04-29T12:33:36;99658.38;;;18.71;100.00
13080;BME280;6606;49.154;9.280;2023-04-29T12:36:18;99659.47;;;19.01;100.00
13080;BME280;6606;49.154;9.280;2023-04-29T12:39:00;99655.00;;;19.11;100.00
13080;BME280;6606;49.154;9.280;2023-04-29T12:41:42;99660.88;;;19.57;100.00
13080;BME280;6606;49.154;9.280;2023-04-29T12:44:24;99665.06;;;19.40;100.00
13080;BME280;6606;49.154;9.280;2023-04-29T12:47:08;99667.59;;;18.89;100.00
13080;BME280;6606;49.154;9.280;2023-04-29T12:49:50;99674.72;;;18.68;100.00
13080;BME280;6606;49.154;9.280;2023-04-29T12:52:32;99677.28;;;18.37;100.00
13080;BME280;6606;49.154;9.280;2023-04-29T12:55:14;99680.53;;;17.75;100.00
13080;BME280;6606;49.154;9.280;2023-04-29T12:57:55;99674.06;;;17.32;100.00
13080;BME280;6606;49.154;9.280;2023-04-29T13:00:37;99669.53;;;16.99;100.00
13080;BME280;6606;49.154;9.280;2023-04-29T13:03:21;99674.66;;;17.25;100.00
13080;BME280;6606;49.154;9.280;2023-04-29T13:06:03;99691.06;;;16.74;100.00
13080;BME280;6606;49.154;9.280;2023-04-29T13:08:46;99682.72;;;16.78;100.00
13080;BME280;6606;49.154;9.280;2023-04-29T13:11:27;99675.31;;;16.82;100.00
13080;BME280;6606;49.154;9.280;2023-04-29T13:14:09;99677.88;;;16.83;100.00
13080;BME280;6606;49.154;9.280;2023-04-29T13:16:51;99673.31;;;17.08;100.00
13080;BME280;6606;49.154;9.280;2023-04-29T13:19:34;99682.00;;;17.34;100.00
13080;BME280;6606;49.154;9.280;2023-04-29T13:22:16;99673.50;;;17.63;100.00
13080;BME280;6606;49.154;9.280;2023-04-29T13:24:59;99683.59;;;17.70;100.00
13080;BME280;6606;49.154;9.280;2023-04-29T13:27:40;99684.69;;;17.90;100.00
13080;BME280;6606;49.154;9.280;2023-04-29T13:30:23;99672.47;;;18.09;100.00
13080;BME280;6606;49.154;9.280;2023-04-29T13:33:05;99678.44;;;18.23;100.00
13080;BME280;6606;49.154;9.280;2023-04-29T13:35:48;99682.25;;;17.98;100.00
13080;BME280;6606;49.154;9.280;2023-04-29T13:38:30;99689.09;;;17.80;100.00
13080;BME280;6606;49.154;9.280;2023-04-29T13:41:12;99685.41;;;17.47;100.00
13080;BME280;6606;49.154;9.280;2023-04-29T13:43:53;99686.88;;;17.40;100.00
13080;BME280;6606;49.154;9.280;2023-04-29T13:46:35;99689.78;;;17.26;100.00
13080;BME280;6606;49.154;9.280;2023-04-29T13:49:17;99684.72;;;16.75;100.00
13080;BME280;6606;49.154;9.280;2023-04-29T13:52:00;99690.56;;;16.68;100.00
13080;BME280;6606;49.154;9.280;2023-04-29T13:54:42;99698.19;;;16.62;100.00
13080;BME280;6606;49.154;9.280;2023-04-29T13:57:24;99693.00;;;16.47;100.00
13080;BME280;6606;49.154;9.280;2023-04-29T14:00:08;99698.25;;;16.49;100.00
13080;BME280;6606;49.154;9.280;2023-04-29T14:02:52;99700.94;;;16.49;100.00
13080;BME280;6606;49.154;9.280;2023-04-29T14:05:33;99697.50;;;16.47;100.00
13080;BME280;6606;49.154;9.280;2023-04-29T14:08:17;99704.00;;;16.32;100.00
13080;BME280;6606;49.154;9.280;2023-04-29T14:10:59;99701.00;;;16.36;100.00
13080;BME280;6606;49.154;9.280;2023-04-29T14:13:41;99705.25;;;16.39;100.00
13080;BME280;6606;49.154;9.280;2023-04-29T14:16:23;99715.22;;;16.61;100.00
13080;BME280;6606;49.154;9.280;2023-04-29T14:19:05;99711.06;;;16.57;100.00
13080;BME280;6606;49.154;9.280;2023-04-29T14:21:48;99709.13;;;16.59;100.00
13080;BME280;6606;49.154;9.280;2023-04-29T14:24:31;99715.25;;;16.48;100.00
13080;BME280;6606;49.154;9.280;2023-04-29T14:27:13;99718.16;;;16.45;100.00
13080;BME280;6606;49.154;9.280;2023-04-29T14:30:01;99715.44;;;16.34;100.00
13080;BME280;6606;49.154;9.280;2023-04-29T14:32:44;99718.38;;;16.18;100.00
13080;BME280;6606;49.154;9.280;2023-04-29T14:35:29;99721.69;;;16.21;100.00
13080;BME280;6606;49.154;9.280;2023-04-29T14:38:11;99722.63;;;16.33;100.00
13080;BME280;6606;49.154;9.280;2023-04-29T14:40:55;99723.19;;;16.25;100.00
13080;BME280;6606;49.154;9.280;2023-04-29T14:43:36;99728.31;;;16.53;100.00
13080;BME280;6606;49.154;9.280;2023-04-29T14:46:18;99730.59;;;16.70;100.00
13080;BME280;6606;49.154;9.280;2023-04-29T14:49:01;99728.53;;;16.74;100.00
13080;BME280;6606;49.154;9.280;2023-04-29T14:51:43;99733.13;;;16.71;100.00
13080;BME280;6606;49.154;9.280;2023-04-29T14:54:26;99729.16;;;16.53;100.00
13080;BME280;6606;49.154;9.280;2023-04-29T14:57:10;99735.19;;;16.44;100.00
13080;BME280;6606;49.154;9.280;2023-04-29T14:59:52;99732.66;;;16.30;100.00